Terminal Aerodrome Forecast
Issued by NWS Cleveland, OH

Home | Current Version | Previous Version | Graphics & Text | Print | Product List | Glossary On
Versions: 1 2 3 4 5 6 7 8 9 10 11 12 13 14 15 16 17 18 19 20 21 22 23 24 25 26 27 28 29 30 31 32 33
000
FTUS41 KCLE 171515 AAB
TAFCLE
TAF AMD
KCLE 171515Z 1715/1818 19010G20KT P6SM VCSH SCT015 OVC028
      TEMPO 1715/1717 6SM -SHRA BR SCT015 BKN035
     FM171700 25012G22KT P6SM SCT015 BKN025
     FM180000 25010KT 5SM BR VCSH BKN010=

USA.gov is the U.S. government's official web portal to all federal, state and local government web resources and services.